createdAt,value
2023-03-29T00:00:37.489Z,1.7
2023-03-29T00:01:45.909Z,1.7
2023-03-29T00:02:54.584Z,1.7
2023-03-29T00:04:03.055Z,1.7
2023-03-29T00:05:11.318Z,1.7
2023-03-29T00:06:19.907Z,1.7
2023-03-29T00:07:28.317Z,1.7
2023-03-29T00:08:36.716Z,1.7
2023-03-29T00:09:45.332Z,1.8
2023-03-29T00:10:53.757Z,1.8
2023-03-29T00:12:02.179Z,1.8
2023-03-29T00:13:10.785Z,1.7
2023-03-29T00:14:19.195Z,1.7
2023-03-29T00:15:27.621Z,1.7
2023-03-29T00:16:36.244Z,1.6
2023-03-29T00:17:44.723Z,1.6
2023-03-29T00:18:53.111Z,1.6
2023-03-29T00:20:02.452Z,1.5
2023-03-29T00:21:10.867Z,1.5
2023-03-29T00:22:19.285Z,1.5
2023-03-29T00:23:27.903Z,1.5
2023-03-29T00:24:36.347Z,1.5
2023-03-29T00:25:44.719Z,1.5
2023-03-29T00:26:53.392Z,1.7
2023-03-29T00:28:01.761Z,1.7
2023-03-29T00:29:10.159Z,1.7
2023-03-29T00:30:18.785Z,1.6
2023-03-29T00:31:27.222Z,1.6
2023-03-29T00:32:35.598Z,1.6
2023-03-29T00:33:44.211Z,1.6
2023-03-29T00:34:52.638Z,1.6
2023-03-29T00:36:01.063Z,1.6
2023-03-29T00:37:09.692Z,1.7
2023-03-29T00:38:18.093Z,1.7
2023-03-29T00:39:26.503Z,1.7
2023-03-29T00:40:35.126Z,1.7
2023-03-29T00:41:43.528Z,1.7
2023-03-29T00:42:51.947Z,1.7
2023-03-29T00:44:00.559Z,2
2023-03-29T00:45:08.947Z,2
2023-03-29T00:46:17.384Z,2
2023-03-29T00:47:26.016Z,2.1
2023-03-29T00:48:34.397Z,2.1
2023-03-29T00:49:42.768Z,2.1
2023-03-29T00:50:51.377Z,2.2
2023-03-29T00:51:59.779Z,2.2
2023-03-29T00:53:08.179Z,2.2
2023-03-29T00:54:16.789Z,2.1
2023-03-29T00:55:25.170Z,2.1
2023-03-29T00:56:33.556Z,2.1
2023-03-29T00:57:42.166Z,2.2
2023-03-29T00:58:50.600Z,2.2
2023-03-29T00:59:58.963Z,2.2
2023-03-29T01:01:07.565Z,2.8
2023-03-29T01:02:16.014Z,2.8
2023-03-29T01:03:24.450Z,2.8
2023-03-29T01:04:32.998Z,2.5
2023-03-29T01:05:41.422Z,2.5
2023-03-29T01:06:49.880Z,2.5
2023-03-29T01:07:58.478Z,2.5
2023-03-29T01:09:06.868Z,2.5
2023-03-29T01:10:15.261Z,2.5
2023-03-29T01:11:23.880Z,2.8
2023-03-29T01:12:32.321Z,2.8
2023-03-29T01:13:40.737Z,2.8
2023-03-29T01:14:49.393Z,3
2023-03-29T01:15:57.807Z,3
2023-03-29T01:17:06.189Z,3
2023-03-29T01:18:14.813Z,3
2023-03-29T01:19:23.235Z,3
2023-03-29T01:20:31.627Z,3
2023-03-29T01:21:40.247Z,3.1
2023-03-29T01:22:48.661Z,3.1
2023-03-29T01:23:57.077Z,3.1
2023-03-29T01:25:05.703Z,3.1
2023-03-29T01:26:14.118Z,3.1
2023-03-29T01:27:22.508Z,3.1
2023-03-29T01:28:31.130Z,2.8
2023-03-29T01:29:39.547Z,2.8
2023-03-29T01:30:47.974Z,2.8
2023-03-29T01:31:56.569Z,2.6
2023-03-29T01:33:05.007Z,2.6
2023-03-29T01:34:13.399Z,2.6
2023-03-29T01:35:21.995Z,3
2023-03-29T01:36:30.425Z,3
2023-03-29T01:37:38.828Z,3
2023-03-29T01:38:47.496Z,2.8
2023-03-29T01:39:55.891Z,2.8
2023-03-29T01:41:04.569Z,2.8
2023-03-29T01:42:12.940Z,3
2023-03-29T01:43:21.375Z,3
2023-03-29T01:44:29.751Z,3
2023-03-29T01:45:38.392Z,2.9
2023-03-29T01:46:46.823Z,2.9
2023-03-29T01:47:55.220Z,2.9
2023-03-29T01:49:03.805Z,3.1
2023-03-29T01:50:12.220Z,3.1
2023-03-29T01:51:20.644Z,3.1
2023-03-29T01:52:29.288Z,3.5
2023-03-29T01:53:37.675Z,3.5
2023-03-29T01:54:46.070Z,3.5
2023-03-29T01:55:54.676Z,3.5
2023-03-29T01:57:03.128Z,3.5
2023-03-29T01:58:11.487Z,3.5
2023-03-29T01:59:20.099Z,3.3
2023-03-29T02:00:28.508Z,3.3
2023-03-29T02:01:36.943Z,3.3
2023-03-29T02:02:45.693Z,3.8
2023-03-29T02:03:53.942Z,3.8
2023-03-29T02:05:02.334Z,3.8
2023-03-29T02:06:10.977Z,4.2
2023-03-29T02:07:19.385Z,4.2
2023-03-29T02:08:27.804Z,4.2
2023-03-29T02:09:36.403Z,5.1
2023-03-29T02:10:44.810Z,5.1
2023-03-29T02:11:53.213Z,5.1
2023-03-29T02:13:01.837Z,5.1
2023-03-29T02:14:10.233Z,5.1
2023-03-29T02:15:18.635Z,5.1
2023-03-29T02:16:27.288Z,5.3
2023-03-29T02:17:35.732Z,5.3
2023-03-29T02:18:44.139Z,5.3
2023-03-29T02:19:52.735Z,4.8
2023-03-29T02:21:01.306Z,4.8
2023-03-29T02:22:09.565Z,4.8
2023-03-29T02:23:18.157Z,4.9
2023-03-29T02:24:26.554Z,4.9
2023-03-29T02:25:34.950Z,4.9
2023-03-29T02:26:43.579Z,5.3
2023-03-29T02:27:52.023Z,5.3
2023-03-29T02:29:00.429Z,5.3
2023-03-29T02:30:09.044Z,5
2023-03-29T02:31:17.473Z,5
2023-03-29T02:32:25.877Z,5
2023-03-29T02:33:34.483Z,5.4
2023-03-29T02:34:42.911Z,5.4
2023-03-29T02:35:51.281Z,5.4
2023-03-29T02:36:59.914Z,5.1
2023-03-29T02:38:08.287Z,5.1
2023-03-29T02:39:16.700Z,5.1
2023-03-29T02:40:25.289Z,5.4
2023-03-29T02:41:33.697Z,5.4
2023-03-29T02:42:42.122Z,5.4
2023-03-29T02:43:50.701Z,5.2
2023-03-29T02:44:59.101Z,5.2
2023-03-29T02:46:07.555Z,5.2
2023-03-29T02:47:16.134Z,5.5
2023-03-29T02:48:24.516Z,5.5
2023-03-29T02:49:32.918Z,5.5
2023-03-29T02:50:41.636Z,5.9
2023-03-29T02:51:49.928Z,5.9
2023-03-29T02:52:58.347Z,5.9
2023-03-29T02:54:06.936Z,6.2
2023-03-29T02:55:15.333Z,6.2
2023-03-29T02:56:23.766Z,6.2
2023-03-29T02:57:32.392Z,6.3
2023-03-29T02:58:40.761Z,6.3
2023-03-29T02:59:49.156Z,6.3
2023-03-29T03:00:57.788Z,6.6
2023-03-29T03:02:06.253Z,6.6
2023-03-29T03:03:14.614Z,6.6
2023-03-29T03:04:23.154Z,6.4
2023-03-29T03:05:31.537Z,6.4
2023-03-29T03:06:39.962Z,6.4
2023-03-29T03:07:48.543Z,5.8
2023-03-29T03:08:56.954Z,5.8
2023-03-29T03:10:05.384Z,5.8
2023-03-29T03:11:14.006Z,6.1
2023-03-29T03:12:22.413Z,6.1
2023-03-29T03:13:30.828Z,6.1
2023-03-29T03:14:39.452Z,5.9
2023-03-29T03:15:47.848Z,5.9
2023-03-29T03:16:56.259Z,5.9
2023-03-29T03:18:04.893Z,6
2023-03-29T03:19:13.303Z,6
2023-03-29T03:20:21.721Z,6
2023-03-29T03:21:30.377Z,6.4
2023-03-29T03:22:38.760Z,6.4
2023-03-29T03:23:47.140Z,6.4
2023-03-29T03:24:55.752Z,6.8
2023-03-29T03:26:04.204Z,6.8
2023-03-29T03:27:12.558Z,6.8
2023-03-29T03:28:21.160Z,6.7
2023-03-29T03:29:29.583Z,6.7
2023-03-29T03:30:37.990Z,6.7
2023-03-29T03:31:46.643Z,6.4
2023-03-29T03:32:55.088Z,6.4
2023-03-29T03:34:03.461Z,6.4
2023-03-29T03:35:12.071Z,6.9
2023-03-29T03:36:20.469Z,6.9
2023-03-29T03:37:28.856Z,6.9
2023-03-29T03:38:37.569Z,7.6
2023-03-29T03:39:47.441Z,7.6
2023-03-29T03:40:55.838Z,7.6
2023-03-29T03:42:07.254Z,7.7
2023-03-29T03:43:12.886Z,7.7
2023-03-29T03:44:21.255Z,7.7
2023-03-29T03:45:29.866Z,7.7
2023-03-29T03:46:38.306Z,7.7
2023-03-29T03:47:46.740Z,7.7
2023-03-29T03:48:55.324Z,6.9
2023-03-29T03:50:03.713Z,6.9
2023-03-29T03:51:12.114Z,6.9
2023-03-29T03:52:20.756Z,14.8
2023-03-29T03:53:29.152Z,14.8
2023-03-29T03:54:37.600Z,14.8
2023-03-29T03:55:46.214Z,9.4
2023-03-29T03:56:54.623Z,9.4
2023-03-29T03:58:03.030Z,9.4
2023-03-29T03:59:11.664Z,6.6
2023-03-29T04:00:20.075Z,6.6
2023-03-29T04:01:28.497Z,6.6
2023-03-29T04:02:37.185Z,6.7
2023-03-29T04:03:45.547Z,6.7
2023-03-29T04:04:53.918Z,6.7
2023-03-29T04:06:02.484Z,7.1
2023-03-29T04:07:10.907Z,7.1
2023-03-29T04:08:19.293Z,7.1
2023-03-29T04:09:27.882Z,7.5
2023-03-29T04:10:36.275Z,7.5
2023-03-29T04:11:44.653Z,7.5
2023-03-29T04:12:53.276Z,7.7
2023-03-29T04:14:01.717Z,7.7
2023-03-29T04:15:10.110Z,7.7
2023-03-29T04:16:18.728Z,7.7
2023-03-29T04:17:27.112Z,7.7
2023-03-29T04:18:35.538Z,7.7
2023-03-29T04:19:44.039Z,7.8
2023-03-29T04:20:52.429Z,7.8
2023-03-29T04:22:00.830Z,7.8
2023-03-29T04:23:09.395Z,7.1
2023-03-29T04:24:17.802Z,7.1
2023-03-29T04:25:26.224Z,7.1
2023-03-29T04:26:34.851Z,7.8
2023-03-29T04:27:43.226Z,7.8
2023-03-29T04:28:51.649Z,7.8
2023-03-29T04:30:00.286Z,7.8
2023-03-29T04:31:09.099Z,7.8
2023-03-29T04:32:17.487Z,7.8
2023-03-29T04:33:26.123Z,7.7
2023-03-29T04:34:34.591Z,7.7
2023-03-29T04:35:43.125Z,7.7
2023-03-29T04:36:51.659Z,7.9
2023-03-29T04:38:00.055Z,7.9
2023-03-29T04:39:08.429Z,7.9
2023-03-29T04:40:17.022Z,8.6
2023-03-29T04:41:25.382Z,8.6
2023-03-29T04:42:33.773Z,8.6
2023-03-29T04:43:42.361Z,7.2
2023-03-29T04:44:50.747Z,7.2
2023-03-29T04:45:59.118Z,7.2
2023-03-29T04:47:07.714Z,7.2
2023-03-29T04:48:16.060Z,7.2
2023-03-29T04:49:26.065Z,7.2
2023-03-29T04:50:32.977Z,8
2023-03-29T04:51:41.347Z,8
2023-03-29T04:52:49.715Z,8
2023-03-29T04:53:58.288Z,7.6
2023-03-29T04:55:06.641Z,7.6
2023-03-29T04:56:14.994Z,7.6
2023-03-29T04:57:23.714Z,7.8
2023-03-29T04:58:32.605Z,7.8
2023-03-29T04:59:40.289Z,7.8
2023-03-29T05:00:48.842Z,6.9
2023-03-29T05:01:57.222Z,6.9
2023-03-29T05:03:05.631Z,6.9
2023-03-29T05:04:14.234Z,7.6
2023-03-29T05:05:22.544Z,7.6
2023-03-29T05:06:30.943Z,7.6
2023-03-29T05:07:39.522Z,6.8
2023-03-29T05:08:47.896Z,6.8
2023-03-29T05:09:56.253Z,6.8
2023-03-29T05:11:04.970Z,7.2
2023-03-29T05:12:13.279Z,7.2
2023-03-29T05:13:21.650Z,7.2
2023-03-29T05:14:30.288Z,7.4
2023-03-29T05:15:40.176Z,7.4
2023-03-29T05:16:47.034Z,7.4
2023-03-29T05:17:55.659Z,43.599998
2023-03-29T05:19:03.983Z,43.599998
2023-03-29T05:20:12.318Z,43.599998
2023-03-29T05:21:20.884Z,126
2023-03-29T05:22:29.228Z,126
2023-03-29T05:23:37.548Z,126
2023-03-29T05:24:46.090Z,9.1
2023-03-29T05:25:54.419Z,9.1
2023-03-29T05:27:02.751Z,9.1
2023-03-29T05:28:11.276Z,52.599998
2023-03-29T05:29:19.652Z,52.599998
2023-03-29T05:30:28.004Z,52.599998
2023-03-29T05:31:36.575Z,23.299999
2023-03-29T05:32:44.870Z,23.299999
2023-03-29T05:33:53.193Z,23.299999
2023-03-29T05:35:01.697Z,28.200001
2023-03-29T05:36:10.043Z,28.200001
2023-03-29T05:37:18.359Z,28.200001
2023-03-29T05:38:26.866Z,20.1
2023-03-29T05:39:37.170Z,20.1
2023-03-29T05:40:43.526Z,20.1
2023-03-29T05:41:52.073Z,28.1
2023-03-29T05:43:00.418Z,28.1
2023-03-29T05:44:08.751Z,28.1
2023-03-29T05:45:17.277Z,33.5
2023-03-29T05:46:25.639Z,33.5
2023-03-29T05:47:33.959Z,33.5
2023-03-29T05:48:42.480Z,9.2
2023-03-29T05:49:50.801Z,9.2
2023-03-29T05:50:59.120Z,9.2
2023-03-29T05:52:07.668Z,6.7
2023-03-29T05:53:15.988Z,6.7
2023-03-29T05:54:24.305Z,6.7
2023-03-29T05:55:32.854Z,7.4
2023-03-29T05:56:41.189Z,7.4
2023-03-29T05:57:49.511Z,7.4
2023-03-29T05:58:58.026Z,8
2023-03-29T06:00:06.341Z,8
2023-03-29T06:01:14.668Z,8
2023-03-29T06:02:23.315Z,33.200001
2023-03-29T06:03:31.624Z,33.200001
2023-03-29T06:04:39.983Z,33.200001
2023-03-29T06:05:49.531Z,25.6
2023-03-29T06:06:56.747Z,25.6
2023-03-29T06:08:05.057Z,25.6
2023-03-29T06:09:13.583Z,20.299999
2023-03-29T06:10:21.899Z,20.299999
2023-03-29T06:11:30.226Z,20.299999
2023-03-29T06:12:38.757Z,8.3
2023-03-29T06:13:47.080Z,8.3
2023-03-29T06:14:55.400Z,8.3
2023-03-29T06:16:03.919Z,12.1
2023-03-29T06:17:12.304Z,12.1
2023-03-29T06:18:20.606Z,12.1
2023-03-29T06:19:29.082Z,10.2
2023-03-29T06:20:37.417Z,10.2
2023-03-29T06:21:45.748Z,10.2
2023-03-29T06:22:54.279Z,9
2023-03-29T06:24:02.610Z,9
2023-03-29T06:25:10.937Z,9
2023-03-29T06:26:19.461Z,10.7
2023-03-29T06:27:27.794Z,10.7
2023-03-29T06:28:36.101Z,10.7
2023-03-29T06:29:44.621Z,7
2023-03-29T06:30:53.018Z,7
2023-03-29T06:32:01.306Z,7
2023-03-29T06:33:09.863Z,5.5
2023-03-29T06:34:18.181Z,5.5
2023-03-29T06:35:26.454Z,5.5
2023-03-29T06:36:34.993Z,11.8
2023-03-29T06:37:43.312Z,11.8
2023-03-29T06:38:51.615Z,11.8
2023-03-29T06:40:00.197Z,20.6
2023-03-29T06:41:08.483Z,20.6
2023-03-29T06:42:21.399Z,20.6
2023-03-29T06:43:25.315Z,9.6
2023-03-29T06:44:33.866Z,9.6
2023-03-29T06:45:41.973Z,9.6
2023-03-29T06:46:50.543Z,10.4
2023-03-29T06:47:58.853Z,10.4
2023-03-29T06:49:07.135Z,10.4
2023-03-29T06:50:15.659Z,5.2
2023-03-29T06:51:23.978Z,5.2
2023-03-29T06:52:32.287Z,5.2
2023-03-29T06:53:40.819Z,7.2
2023-03-29T06:54:49.126Z,7.2
2023-03-29T06:55:57.432Z,7.2
2023-03-29T06:57:05.978Z,9.8
2023-03-29T06:58:14.283Z,9.8
2023-03-29T06:59:22.603Z,9.8
2023-03-29T07:00:31.131Z,4.6
2023-03-29T07:01:39.492Z,4.6
2023-03-29T07:02:47.785Z,4.6
2023-03-29T07:03:56.311Z,8.2
2023-03-29T07:05:04.614Z,8.2
2023-03-29T07:06:13.044Z,8.2
2023-03-29T07:07:21.455Z,8.2
2023-03-29T07:08:29.755Z,8.2
2023-03-29T07:09:38.083Z,8.2
2023-03-29T07:10:46.622Z,181.1
2023-03-29T07:11:54.959Z,181.1
2023-03-29T07:13:03.280Z,181.1
2023-03-29T07:14:11.794Z,12.3
2023-03-29T07:15:20.141Z,12.3
2023-03-29T07:16:28.560Z,12.3
2023-03-29T07:17:37.041Z,54.900002
2023-03-29T07:18:45.331Z,54.900002
2023-03-29T07:19:53.640Z,54.900002
2023-03-29T07:21:02.387Z,64.5
2023-03-29T07:22:10.544Z,64.5
2023-03-29T07:23:18.809Z,64.5
2023-03-29T07:24:27.327Z,8.7
2023-03-29T07:25:35.653Z,8.7
2023-03-29T07:26:49.195Z,8.7
2023-03-29T07:27:52.506Z,7.1
2023-03-29T07:29:00.831Z,7.1
2023-03-29T07:30:09.173Z,7.1
2023-03-29T07:31:17.688Z,18.299999
2023-03-29T07:32:26.055Z,18.299999
2023-03-29T07:33:34.394Z,18.299999
2023-03-29T07:34:42.878Z,4.6
2023-03-29T07:35:51.232Z,4.6
2023-03-29T07:36:59.505Z,4.6
2023-03-29T07:38:08.056Z,5
2023-03-29T07:39:16.341Z,5
2023-03-29T07:40:24.827Z,5
2023-03-29T07:41:33.210Z,5.4
2023-03-29T07:42:41.540Z,5.4
2023-03-29T07:43:49.854Z,5.4
2023-03-29T07:44:58.372Z,7.4
2023-03-29T07:46:06.794Z,7.4
2023-03-29T07:47:15.028Z,7.4
2023-03-29T07:48:23.532Z,8.8
2023-03-29T07:49:31.858Z,8.8
2023-03-29T07:50:40.187Z,8.8
2023-03-29T07:51:48.729Z,21.200001
2023-03-29T07:52:57.045Z,21.200001
2023-03-29T07:54:05.402Z,21.200001
2023-03-29T07:55:13.883Z,12.5
2023-03-29T07:56:22.207Z,12.5
2023-03-29T07:57:30.568Z,12.5
2023-03-29T07:58:39.035Z,6.4
2023-03-29T07:59:47.351Z,6.4
2023-03-29T08:00:55.753Z,6.4
2023-03-29T08:02:04.217Z,13
2023-03-29T08:03:12.603Z,13
2023-03-29T08:04:20.874Z,13
2023-03-29T08:05:40.489Z,7.3
2023-03-29T08:06:37.675Z,7.3
2023-03-29T08:07:46.065Z,7.3
2023-03-29T08:08:54.519Z,4.7
2023-03-29T08:10:02.870Z,4.7
2023-03-29T08:11:11.158Z,4.7
2023-03-29T08:12:19.694Z,4.2
2023-03-29T08:13:28.011Z,4.2
2023-03-29T08:14:36.325Z,4.2
2023-03-29T08:15:44.864Z,5.1
2023-03-29T08:16:53.227Z,5.1
2023-03-29T08:18:01.536Z,5.1
2023-03-29T08:19:10.028Z,5.6
2023-03-29T08:20:18.351Z,5.6
2023-03-29T08:21:26.706Z,5.6
2023-03-29T08:22:35.222Z,5
2023-03-29T08:23:43.541Z,5
2023-03-29T08:24:51.857Z,5
2023-03-29T08:26:00.417Z,4.9
2023-03-29T08:27:08.718Z,4.9
2023-03-29T08:28:17.037Z,4.9
2023-03-29T08:29:25.558Z,5.3
2023-03-29T08:30:33.877Z,5.3
2023-03-29T08:31:42.207Z,5.3
2023-03-29T08:32:52.266Z,4.8
2023-03-29T08:33:59.060Z,4.8
2023-03-29T08:35:07.381Z,4.8
2023-03-29T08:36:15.919Z,7.4
2023-03-29T08:37:24.220Z,7.4
2023-03-29T08:38:32.550Z,7.4
2023-03-29T08:39:41.058Z,4.9
2023-03-29T08:40:49.368Z,4.9
2023-03-29T08:41:57.723Z,4.9
2023-03-29T08:43:06.243Z,5.9
2023-03-29T08:44:14.540Z,5.9
2023-03-29T08:45:22.845Z,5.9
2023-03-29T08:46:35.241Z,4.5
2023-03-29T08:47:39.723Z,4.5
2023-03-29T08:48:47.996Z,4.5
2023-03-29T08:49:56.537Z,8
2023-03-29T08:51:05.645Z,8
2023-03-29T08:52:13.188Z,8
2023-03-29T08:53:21.702Z,4
2023-03-29T08:54:30.017Z,4
2023-03-29T08:55:38.332Z,4
2023-03-29T08:56:47.594Z,4.7
2023-03-29T08:57:55.935Z,4.7
2023-03-29T08:59:04.215Z,4.7
2023-03-29T09:00:12.733Z,5.5
2023-03-29T09:01:21.110Z,5.5
2023-03-29T09:02:29.484Z,5.5
2023-03-29T09:03:37.945Z,4.7
2023-03-29T09:04:46.225Z,4.7
2023-03-29T09:05:54.587Z,4.7
2023-03-29T09:07:03.124Z,5.1
2023-03-29T09:08:11.417Z,5.1
2023-03-29T09:09:19.737Z,5.1
2023-03-29T09:10:28.256Z,5.4
2023-03-29T09:11:36.574Z,5.4
2023-03-29T09:12:44.893Z,5.4
2023-03-29T09:13:53.435Z,4.2
2023-03-29T09:15:01.716Z,4.2
2023-03-29T09:16:10.052Z,4.2
2023-03-29T09:17:18.566Z,4
2023-03-29T09:18:26.890Z,4
2023-03-29T09:19:35.201Z,4
2023-03-29T09:20:43.730Z,4
2023-03-29T09:21:54.624Z,4
2023-03-29T09:23:02.959Z,4
2023-03-29T09:24:11.481Z,4
2023-03-29T09:25:19.806Z,4
2023-03-29T09:26:28.124Z,4
2023-03-29T09:27:36.647Z,3.7
2023-03-29T09:28:44.958Z,3.7
2023-03-29T09:29:53.320Z,3.7
2023-03-29T09:31:01.913Z,4
2023-03-29T09:32:10.126Z,4
2023-03-29T09:33:18.428Z,4
2023-03-29T09:34:26.956Z,4.1
2023-03-29T09:35:35.324Z,4.1
2023-03-29T09:36:43.592Z,4.1
2023-03-29T09:37:52.144Z,3.4
2023-03-29T09:39:00.450Z,3.4
2023-03-29T09:40:08.759Z,3.4
2023-03-29T09:41:17.297Z,3.7
2023-03-29T09:42:25.614Z,3.7
2023-03-29T09:43:33.925Z,3.7
2023-03-29T09:44:42.470Z,3.9
2023-03-29T09:45:50.811Z,3.9
2023-03-29T09:46:59.075Z,3.9
2023-03-29T09:48:07.626Z,3.6
2023-03-29T09:49:17.289Z,3.6
2023-03-29T09:50:31.242Z,3.6
2023-03-29T09:51:32.791Z,3.5
2023-03-29T09:52:41.095Z,3.5
2023-03-29T09:53:49.418Z,3.5
2023-03-29T09:54:57.952Z,3.6
2023-03-29T09:56:06.261Z,3.6
2023-03-29T09:57:14.599Z,3.6
2023-03-29T09:58:23.117Z,3.7
2023-03-29T09:59:31.438Z,3.7
2023-03-29T10:00:39.773Z,3.7
2023-03-29T10:01:48.435Z,3.8
2023-03-29T10:02:56.627Z,3.8
2023-03-29T10:04:04.936Z,3.8
2023-03-29T10:05:13.435Z,4
2023-03-29T10:06:21.770Z,4
2023-03-29T10:07:30.086Z,4
2023-03-29T10:08:38.632Z,3.6
2023-03-29T10:09:47.024Z,3.6
2023-03-29T10:10:55.254Z,3.6
2023-03-29T10:12:03.828Z,3.8
2023-03-29T10:13:12.114Z,3.8
2023-03-29T10:14:20.442Z,3.8
2023-03-29T10:15:29.927Z,3.6
2023-03-29T10:16:37.327Z,3.6
2023-03-29T10:17:45.659Z,3.6
2023-03-29T10:18:54.327Z,3.8
2023-03-29T10:20:04.137Z,3.8
2023-03-29T10:21:10.987Z,3.8
2023-03-29T10:22:19.534Z,3.9
2023-03-29T10:23:27.895Z,3.9
2023-03-29T10:24:36.223Z,3.9
2023-03-29T10:25:44.778Z,4
2023-03-29T10:26:53.148Z,4
2023-03-29T10:28:01.494Z,4
2023-03-29T10:29:10.085Z,7.2
2023-03-29T10:30:18.402Z,7.2
2023-03-29T10:31:26.855Z,7.2
2023-03-29T10:32:35.385Z,4.3
2023-03-29T10:33:43.731Z,4.3
2023-03-29T10:34:52.050Z,4.3
2023-03-29T10:36:00.651Z,3.3
2023-03-29T10:37:08.921Z,3.3
2023-03-29T10:38:17.281Z,3.3
2023-03-29T10:39:25.843Z,3.8
2023-03-29T10:40:34.185Z,3.8
2023-03-29T10:41:42.528Z,3.8
2023-03-29T10:42:51.071Z,3.5
2023-03-29T10:43:59.386Z,3.5
2023-03-29T10:45:07.724Z,3.5
2023-03-29T10:46:16.288Z,3.3
2023-03-29T10:47:24.629Z,3.3
2023-03-29T10:48:32.952Z,3.3
2023-03-29T10:49:41.524Z,3.5
2023-03-29T10:50:49.820Z,3.5
2023-03-29T10:51:58.150Z,3.5
2023-03-29T10:53:06.694Z,3.6
2023-03-29T10:54:15.045Z,3.6
2023-03-29T10:55:23.389Z,3.6
2023-03-29T10:56:31.935Z,3.6
2023-03-29T10:57:40.280Z,3.6
2023-03-29T10:58:48.624Z,3.6
2023-03-29T10:59:57.162Z,3.2
2023-03-29T11:01:05.772Z,3.2
2023-03-29T11:02:13.984Z,3.2
2023-03-29T11:03:22.417Z,3.7
2023-03-29T11:04:30.740Z,3.7
2023-03-29T11:05:39.094Z,3.7
2023-03-29T11:06:47.614Z,3.5
2023-03-29T11:07:55.947Z,3.5
2023-03-29T11:09:04.277Z,3.5
2023-03-29T11:10:12.939Z,5.5
2023-03-29T11:11:21.151Z,5.5
2023-03-29T11:12:29.495Z,5.5
2023-03-29T11:13:38.053Z,3.2
2023-03-29T11:14:46.350Z,3.2
2023-03-29T11:15:54.734Z,3.2
2023-03-29T11:17:03.273Z,3.6
2023-03-29T11:18:11.603Z,3.6
2023-03-29T11:19:19.954Z,3.6
2023-03-29T11:20:28.490Z,3.7
2023-03-29T11:21:36.854Z,3.7
2023-03-29T11:22:45.164Z,3.7
2023-03-29T11:23:53.722Z,3.6
2023-03-29T11:25:02.048Z,3.6
2023-03-29T11:26:10.380Z,3.6
2023-03-29T11:27:18.937Z,3.5
2023-03-29T11:28:27.327Z,3.5
2023-03-29T11:29:35.647Z,3.5
2023-03-29T11:30:44.194Z,3.3
2023-03-29T11:31:52.615Z,3.3
2023-03-29T11:33:00.921Z,3.3
2023-03-29T11:34:09.406Z,3.4
2023-03-29T11:35:17.747Z,3.4
2023-03-29T11:36:26.108Z,3.4
2023-03-29T11:37:34.670Z,3.3
2023-03-29T11:38:45.157Z,3.3
2023-03-29T11:39:51.347Z,3.3
2023-03-29T11:40:59.885Z,3.8
2023-03-29T11:42:08.220Z,3.8
2023-03-29T11:43:16.579Z,3.8
2023-03-29T11:44:25.169Z,4.3
2023-03-29T11:45:33.504Z,4.3
2023-03-29T11:46:41.879Z,4.3
2023-03-29T11:47:50.438Z,3.1
2023-03-29T11:48:58.752Z,3.1
2023-03-29T11:50:07.099Z,3.1
2023-03-29T11:51:15.654Z,3.3
2023-03-29T11:52:24.005Z,3.3
2023-03-29T11:53:32.349Z,3.3
2023-03-29T11:54:40.879Z,3
2023-03-29T11:55:49.233Z,3
2023-03-29T11:56:57.627Z,3
2023-03-29T11:58:06.152Z,3.2
2023-03-29T11:59:14.535Z,3.2
2023-03-29T12:00:22.886Z,3.2
2023-03-29T12:01:31.455Z,3.1
2023-03-29T12:02:39.873Z,3.1
2023-03-29T12:03:48.212Z,3.1
2023-03-29T12:04:56.731Z,3
2023-03-29T12:06:05.031Z,3
2023-03-29T12:07:13.376Z,3
2023-03-29T12:08:21.918Z,3.4
2023-03-29T12:09:30.295Z,3.4
2023-03-29T12:10:38.628Z,3.4
2023-03-29T12:11:47.175Z,3.3
2023-03-29T12:12:55.514Z,3.3
2023-03-29T12:14:03.840Z,3.3
2023-03-29T12:15:12.403Z,3.3
2023-03-29T12:16:20.756Z,3.3
2023-03-29T12:17:29.120Z,3.3
2023-03-29T12:18:37.619Z,3.3
2023-03-29T12:19:45.961Z,3.3
2023-03-29T12:20:54.302Z,3.3
2023-03-29T12:22:02.862Z,3.6
2023-03-29T12:23:11.192Z,3.6
2023-03-29T12:24:19.510Z,3.6
2023-03-29T12:25:28.072Z,3.8
2023-03-29T12:26:36.421Z,3.8
2023-03-29T12:27:44.738Z,3.8
2023-03-29T12:28:53.270Z,3.3
2023-03-29T12:30:01.623Z,3.3
2023-03-29T12:31:09.911Z,3.3
2023-03-29T12:32:18.480Z,3.1
2023-03-29T12:33:26.836Z,3.1
2023-03-29T12:34:35.145Z,3.1
2023-03-29T12:35:43.696Z,2.9
2023-03-29T12:36:52.091Z,2.9
2023-03-29T12:38:00.370Z,2.9
2023-03-29T12:39:08.917Z,3
2023-03-29T12:40:17.240Z,3
2023-03-29T12:41:25.597Z,3
2023-03-29T12:42:34.128Z,2.8
2023-03-29T12:43:42.455Z,2.8
2023-03-29T12:44:50.788Z,2.8
2023-03-29T12:45:59.386Z,2.4
2023-03-29T12:47:07.676Z,2.4
2023-03-29T12:48:16.022Z,2.4
2023-03-29T12:49:24.581Z,2.6
2023-03-29T12:50:32.904Z,2.6
2023-03-29T12:51:41.255Z,2.6
2023-03-29T12:52:49.793Z,2.6
2023-03-29T12:53:58.127Z,2.6
2023-03-29T12:55:06.460Z,2.6
2023-03-29T12:56:15.104Z,2.7
2023-03-29T12:57:23.446Z,2.7
2023-03-29T12:58:31.705Z,2.7
2023-03-29T12:59:40.246Z,2.6
2023-03-29T13:00:48.623Z,2.6
2023-03-29T13:01:57.006Z,2.6
2023-03-29T13:03:05.525Z,2.7
2023-03-29T13:04:14.101Z,2.7
2023-03-29T13:05:22.471Z,2.7
2023-03-29T13:06:31.001Z,2.6
2023-03-29T13:07:39.339Z,2.6
2023-03-29T13:08:47.670Z,2.6
2023-03-29T13:09:56.200Z,3.1
2023-03-29T13:11:04.534Z,3.1
2023-03-29T13:12:12.860Z,3.1
2023-03-29T13:13:21.448Z,2.8
2023-03-29T13:14:29.790Z,2.8
2023-03-29T13:15:38.150Z,2.8
2023-03-29T13:16:46.697Z,2.4
2023-03-29T13:17:55.088Z,2.4
2023-03-29T13:19:03.393Z,2.4
2023-03-29T13:20:11.937Z,2
2023-03-29T13:21:20.283Z,2
2023-03-29T13:22:28.617Z,2
2023-03-29T13:23:37.206Z,2.4
2023-03-29T13:24:45.539Z,2.4
2023-03-29T13:25:53.896Z,2.4
2023-03-29T13:27:02.655Z,2.2
2023-03-29T13:28:10.986Z,2.2
2023-03-29T13:29:19.382Z,2.2
2023-03-29T13:30:27.919Z,2.3
2023-03-29T13:31:36.319Z,2.3
2023-03-29T13:32:44.633Z,2.3
2023-03-29T13:33:53.186Z,2.9
2023-03-29T13:35:01.535Z,2.9
2023-03-29T13:36:09.919Z,2.9
2023-03-29T13:37:18.496Z,2.5
2023-03-29T13:38:26.858Z,2.5
2023-03-29T13:39:35.196Z,2.5
2023-03-29T13:40:43.747Z,2.7
2023-03-29T13:41:52.113Z,2.7
2023-03-29T13:43:00.450Z,2.7
2023-03-29T13:44:08.990Z,2.9
2023-03-29T13:45:17.356Z,2.9
2023-03-29T13:46:25.732Z,2.9
2023-03-29T13:47:34.247Z,2.6
2023-03-29T13:48:42.663Z,2.6
2023-03-29T13:49:51.721Z,2.6
2023-03-29T13:50:59.496Z,2.6
2023-03-29T13:52:07.861Z,2.6
2023-03-29T13:53:16.205Z,2.6
2023-03-29T13:54:24.797Z,2.4
2023-03-29T13:55:34.457Z,2.4
2023-03-29T13:56:41.521Z,2.4
2023-03-29T13:57:50.033Z,2.8
2023-03-29T13:58:58.354Z,2.8
2023-03-29T14:00:06.699Z,2.8
2023-03-29T14:01:15.409Z,2.5
2023-03-29T14:02:23.674Z,2.5
2023-03-29T14:03:31.978Z,2.5
2023-03-29T14:04:40.544Z,2.7
2023-03-29T14:05:48.888Z,2.7
2023-03-29T14:06:57.845Z,2.7
2023-03-29T14:08:06.672Z,2.5
2023-03-29T14:09:15.021Z,2.5
2023-03-29T14:10:23.415Z,2.5
2023-03-29T14:11:31.986Z,2.3
2023-03-29T14:12:41.812Z,2.3
2023-03-29T14:13:48.815Z,2.3
2023-03-29T14:14:59.383Z,2.2
2023-03-29T14:16:05.920Z,2.2
2023-03-29T14:17:14.160Z,2.2
2023-03-29T14:18:22.638Z,2.6
2023-03-29T14:19:30.996Z,2.6
2023-03-29T14:20:39.346Z,2.6
2023-03-29T14:21:47.920Z,2.4
2023-03-29T14:22:56.271Z,2.4
2023-03-29T14:24:04.629Z,2.4
2023-03-29T14:25:13.191Z,2.7
2023-03-29T14:26:21.533Z,2.7
2023-03-29T14:27:29.886Z,2.7
2023-03-29T14:28:38.399Z,2.5
2023-03-29T14:29:46.742Z,2.5
2023-03-29T14:30:55.094Z,2.5
2023-03-29T14:32:03.730Z,2.5
2023-03-29T14:33:12.087Z,2.5
2023-03-29T14:34:20.382Z,2.5
2023-03-29T14:35:28.960Z,2.6
2023-03-29T14:36:37.419Z,2.6
2023-03-29T14:37:45.898Z,2.6
2023-03-29T14:38:54.474Z,2.2
2023-03-29T14:40:02.867Z,2.2
2023-03-29T14:41:11.172Z,2.2
2023-03-29T14:42:19.793Z,2.3
2023-03-29T14:43:28.122Z,2.3
2023-03-29T14:44:36.480Z,2.3
2023-03-29T14:45:45.049Z,2
2023-03-29T14:46:53.388Z,2
2023-03-29T14:48:02.208Z,2
2023-03-29T14:49:10.724Z,2.5
2023-03-29T14:50:19.071Z,2.5
2023-03-29T14:51:27.426Z,2.5
2023-03-29T14:52:35.990Z,2.6
2023-03-29T14:53:44.332Z,2.6
2023-03-29T14:54:52.703Z,2.6
2023-03-29T14:56:01.297Z,3
2023-03-29T14:57:09.706Z,3
2023-03-29T14:58:17.974Z,3
2023-03-29T14:59:26.517Z,2.4
2023-03-29T15:00:34.872Z,2.4
2023-03-29T15:01:43.287Z,2.4
2023-03-29T15:02:51.914Z,2.8
2023-03-29T15:04:00.265Z,2.8
2023-03-29T15:05:08.647Z,2.8
2023-03-29T15:39:24.240Z,0
2023-03-29T15:40:32.607Z,0
2023-03-29T15:41:40.919Z,0
2023-03-29T15:42:49.475Z,2.3
2023-03-29T15:43:57.840Z,2.3
2023-03-29T15:45:06.195Z,2.3
2023-03-29T15:46:14.751Z,2.3
2023-03-29T15:47:23.118Z,2.3
2023-03-29T15:48:31.490Z,2.3
2023-03-29T15:49:40.059Z,2.6
2023-03-29T15:50:48.388Z,2.6
2023-03-29T15:51:56.756Z,2.6
2023-03-29T15:53:14.426Z,2.4
2023-03-29T15:54:13.655Z,2.4
2023-03-29T15:55:22.029Z,2.4
2023-03-29T15:56:30.561Z,3.2
2023-03-29T15:57:39.052Z,3.2
2023-03-29T15:58:47.519Z,3.2
2023-03-29T15:59:56.080Z,2.9
2023-03-29T16:01:04.521Z,2.9
2023-03-29T16:02:12.909Z,2.9
2023-03-29T16:03:21.620Z,3.9
2023-03-29T16:04:29.912Z,3.9
2023-03-29T16:05:38.248Z,3.9
2023-03-29T16:06:46.828Z,4.4
2023-03-29T16:07:55.164Z,4.4
2023-03-29T16:09:03.513Z,4.4
2023-03-29T16:10:12.071Z,3.5
2023-03-29T16:11:20.454Z,3.5
2023-03-29T16:12:28.783Z,3.5
2023-03-29T16:13:37.368Z,2.3